Time;durP1;ratioP1;P1;durP2;ratioP2;P2;SDS_P1;SDS_P2;PMS_P1;PMS_P2;Temp;Humidity;BMP_temperature;BMP_pressure;BME280_temperature;BME280_humidity;BME280_pressure;Samples;Min_cycle;Max_cycle;Signal;HPM_P1;HPM_P2
2023/11/13 00:01:07;;;;;;;8.82;4.70;;;;;;;5.19;83.44;92343.59;2071350;69;20604;-79
2023/11/13 00:03:34;;;;;;;7.15;5.00;;;;;;;5.02;84.12;92338.13;2071459;69;20140;-79
2023/11/13 00:06:00;;;;;;;10.65;5.50;;;;;;;4.83;85.29;92341.59;2071656;69;20155;-79
2023/11/13 00:08:27;;;;;;;6.68;4.78;;;;;;;5.00;85.46;92351.94;2068138;69;20128;-79
2023/11/13 00:10:53;;;;;;;6.47;4.15;;;;;;;5.19;84.20;92360.34;2067918;69;20251;-78
2023/11/13 00:13:18;;;;;;;6.93;4.60;;;;;;;5.29;83.24;92361.09;2071352;69;20510;-79
2023/11/13 00:15:44;;;;;;;6.32;4.30;;;;;;;5.31;83.36;92364.03;2071043;69;20556;-79
2023/11/13 00:18:10;;;;;;;5.13;3.60;;;;;;;5.33;84.18;92363.44;2068007;69;20156;-79
2023/11/13 00:20:36;;;;;;;7.03;4.10;;;;;;;5.15;85.69;92343.28;2071217;69;20143;-78
2023/11/13 00:23:02;;;;;;;6.10;4.00;;;;;;;5.27;85.19;92346.25;2071053;69;20160;-79
2023/11/13 00:25:28;;;;;;;4.28;2.75;;;;;;;5.30;85.72;92339.50;2067891;69;20151;-79
2023/11/13 00:27:57;;;;;;;6.15;2.97;;;;;;;5.38;84.80;92350.53;2071629;69;20252;-78
2023/11/13 00:30:23;;;;;;;4.63;3.05;;;;;;;5.34;85.37;92348.91;2071511;69;20670;-79
2023/11/13 00:32:50;;;;;;;4.70;3.35;;;;;;;5.43;84.54;92352.28;2071155;69;20282;-78
2023/11/13 00:35:15;;;;;;;4.43;2.67;;;;;;;5.52;84.26;92369.06;2067647;69;20553;-79
2023/11/13 00:37:42;;;;;;;5.03;3.30;;;;;;;5.42;84.77;92373.16;2067950;69;20132;-79
2023/11/13 00:40:08;;;;;;;5.13;3.40;;;;;;;5.56;83.65;92374.19;2067647;69;20171;-79
2023/11/13 00:42:36;;;;;;;6.72;3.25;;;;;;;5.63;84.35;92373.31;2068044;69;20197;-78
2023/11/13 00:45:02;;;;;;;4.82;2.95;;;;;;;5.64;84.34;92380.41;2065029;69;20185;-79
2023/11/13 00:47:28;;;;;;;6.95;3.90;;;;;;;5.30;86.24;92398.09;2071323;69;20199;-78
2023/11/13 00:49:55;;;;;;;7.22;4.10;;;;;;;5.44;85.59;92395.63;2068215;69;20176;-78
2023/11/13 00:52:22;;;;;;;5.97;3.67;;;;;;;5.55;85.70;92401.41;2068176;69;20239;-79
2023/11/13 00:54:47;;;;;;;5.45;3.22;;;;;;;5.51;85.27;92386.41;2071327;69;20286;-79
2023/11/13 00:57:14;;;;;;;5.93;4.05;;;;;;;5.26;87.04;92398.53;2068131;69;20148;-79
2023/11/13 00:59:40;;;;;;;5.82;4.05;;;;;;;5.43;86.55;92400.50;2071250;69;20143;-79
2023/11/13 01:02:06;;;;;;;7.78;4.40;;;;;;;5.46;86.19;92388.16;2065037;69;20144;-79
2023/11/13 01:04:32;;;;;;;5.72;3.92;;;;;;;5.57;85.72;92381.97;2071023;69;20133;-79
2023/11/13 01:06:57;;;;;;;5.93;3.97;;;;;;;5.70;84.83;92392.00;2071122;69;20144;-79
2023/11/13 01:09:23;;;;;;;7.93;4.28;;;;;;;5.70;83.40;92380.81;2067964;69;20479;-79
2023/11/13 01:11:50;;;;;;;4.95;3.63;;;;;;;5.62;84.44;92402.56;2067835;69;20506;-79
2023/11/13 01:14:16;;;;;;;5.80;3.55;;;;;;;5.72;83.64;92410.94;2071286;69;20209;-80
2023/11/13 01:16:42;;;;;;;7.15;3.90;;;;;;;5.67;84.25;92398.00;2071376;69;20180;-79
2023/11/13 01:19:08;;;;;;;6.07;3.88;;;;;;;5.70;84.61;92396.84;2071545;69;20148;-79
2023/11/13 01:21:34;;;;;;;5.10;3.45;;;;;;;5.76;84.50;92392.44;2071986;69;20152;-79
2023/11/13 01:24:05;;;;;;;3.85;2.45;;;;;;;5.71;86.06;92389.94;2071789;69;20144;-79
2023/11/13 01:26:31;;;;;;;5.78;2.38;;;;;;;5.66;86.23;92391.69;2071719;69;20542;-79
2023/11/13 01:28:57;;;;;;;7.03;3.50;;;;;;;5.52;87.41;92383.00;2068617;69;20171;-79
2023/11/13 01:31:23;;;;;;;4.57;3.60;;;;;;;5.70;86.38;92396.84;2071988;69;20621;-79
2023/11/13 01:33:49;;;;;;;6.22;3.85;;;;;;;5.80;85.20;92394.78;2065840;69;20144;-79
2023/11/13 01:36:17;;;;;;;6.13;3.55;;;;;;;5.79;84.79;92382.88;2068591;69;20190;-79
2023/11/13 01:38:44;;;;;;;5.47;3.53;;;;;;;5.84;84.62;92389.50;2068046;69;20172;-80
2023/11/13 01:41:10;;;;;;;6.78;3.50;;;;;;;5.89;84.50;92382.16;2068370;69;20597;-79
2023/11/13 01:43:44;;;;;;;4.72;3.28;;;;;;;5.91;83.55;92385.09;2071814;69;20175;-79
2023/11/13 01:46:11;;;;;;;5.35;3.28;;;;;;;5.89;85.13;92394.06;2071464;69;20152;-80
2023/11/13 01:48:37;;;;;;;5.32;2.97;;;;;;;5.90;85.10;92383.63;2071904;69;20214;-79
2023/11/13 01:51:08;;;;;;;9.57;3.88;;;;;;;5.74;85.62;92377.59;2071927;69;20125;-79
2023/11/13 01:53:34;;;;;;;5.55;3.38;;;;;;;5.68;86.48;92374.34;2068589;69;20148;-79
2023/11/13 01:56:13;;;;;;;6.03;3.35;;;;;;;5.82;84.97;92367.03;2068251;69;20622;-78
2023/11/13 01:58:44;;;;;;;4.43;2.90;;;;;;;5.86;84.41;92358.91;2071911;69;20164;-79
2023/11/13 02:01:10;;;;;;;4.97;3.03;;;;;;;5.84;85.19;92365.09;2068346;69;20596;-79
2023/11/13 02:03:37;;;;;;;2.85;1.73;;;;;;;5.93;85.23;92376.88;2071700;69;20710;-78
2023/11/13 02:06:04;;;;;;;8.73;3.85;;;;;;;5.49;87.16;92377.88;2071481;69;20137;-81
2023/11/13 02:08:29;;;;;;;5.60;3.70;;;;;;;5.39;88.36;92361.09;2068020;69;20291;-78
2023/11/13 02:10:56;;;;;;;5.55;3.50;;;;;;;5.34;89.54;92374.03;2071647;69;20207;-79
2023/11/13 02:13:28;;;;;;;4.57;3.35;;;;;;;5.51;88.60;92380.81;2072273;69;20150;-79
2023/11/13 02:15:53;;;;;;;4.65;3.33;;;;;;;5.72;87.43;92378.16;2071314;69;20159;-80
2023/11/13 02:18:19;;;;;;;6.50;3.30;;;;;;;5.84;86.04;92386.72;2069189;69;20588;-79
2023/11/13 02:20:44;;;;;;;5.65;3.38;;;;;;;5.88;86.15;92375.09;2071592;69;20560;-78
2023/11/13 02:23:17;;;;;;;5.20;2.30;;;;;;;5.61;87.94;92373.91;2068233;69;20153;-79
2023/11/13 02:25:51;;;;;;;6.28;2.28;;;;;;;5.70;87.41;92391.25;2068362;69;20235;-78
2023/11/13 02:28:17;;;;;;;4.57;2.90;;;;;;;5.77;87.24;92377.16;2067964;69;20132;-79
2023/11/13 02:30:43;;;;;;;7.28;3.00;;;;;;;5.52;89.04;92374.63;2068071;69;20136;-78
2023/11/13 02:33:09;;;;;;;3.80;2.60;;;;;;;5.67;88.59;92387.56;2068017;69;20152;-79
2023/11/13 02:35:34;;;;;;;5.50;2.80;;;;;;;5.78;87.01;92383.47;2071483;69;20765;-79
2023/11/13 02:38:00;;;;;;;2.65;2.00;;;;;;;5.83;86.84;92385.25;2071426;69;20203;-79
2023/11/13 02:40:27;;;;;;;4.10;1.85;;;;;;;5.91;86.28;92396.25;2071576;69;20145;-79
2023/11/13 02:42:53;;;;;;;2.90;1.83;;;;;;;5.73;88.01;92393.63;2071602;69;20156;-80
2023/11/13 02:45:23;;;;;;;3.45;2.50;;;;;;;5.67;88.23;92384.78;2071703;69;20140;-80
2023/11/13 02:47:51;;;;;;;5.93;2.42;;;;;;;5.78;88.08;92397.44;2071655;69;20171;-80
2023/11/13 02:50:17;;;;;;;3.67;2.33;;;;;;;5.88;86.94;92395.38;2068231;69;20144;-79
2023/11/13 02:52:42;;;;;;;3.40;2.10;;;;;;;5.97;85.82;92399.53;2071688;69;20159;-79
2023/11/13 02:55:08;;;;;;;3.97;2.38;;;;;;;5.89;86.24;92373.78;2067506;69;20140;-80
2023/11/13 02:57:34;;;;;;;3.35;1.88;;;;;;;5.93;86.42;92382.47;2071403;69;20148;-80
2023/11/13 03:00:00;;;;;;;3.17;2.15;;;;;;;5.76;86.93;92378.47;2071409;69;20230;-80
2023/11/13 03:02:26;;;;;;;2.97;2.00;;;;;;;5.92;85.98;92409.69;2068212;69;20124;-79
2023/11/13 03:04:52;;;;;;;4.85;1.80;;;;;;;5.75;86.13;92396.56;2071702;69;20168;-79
2023/11/13 03:07:17;;;;;;;2.60;1.40;;;;;;;5.91;85.84;92408.19;2071415;69;20132;-79
2023/11/13 03:09:43;;;;;;;1.85;1.50;;;;;;;5.64;88.61;92391.56;2068083;69;20152;-80
2023/11/13 03:12:11;;;;;;;4.65;1.60;;;;;;;5.70;88.21;92374.50;2071536;69;20148;-80
2023/11/13 03:14:37;;;;;;;3.55;1.27;;;;;;;5.77;87.82;92373.63;2068113;69;20214;-80
2023/11/13 03:17:03;;;;;;;2.42;1.55;;;;;;;5.79;88.67;92359.81;2071503;69;20160;-79
2023/11/13 03:19:29;;;;;;;2.63;1.40;;;;;;;5.76;88.01;92344.94;2068245;69;20158;-80
2023/11/13 03:21:54;;;;;;;2.67;1.58;;;;;;;5.68;88.58;92354.78;2071223;69;20156;-80
2023/11/13 03:24:21;;;;;;;7.50;1.50;;;;;;;5.91;86.75;92379.50;2071481;69;20163;-79
2023/11/13 03:26:47;;;;;;;6.70;1.40;;;;;;;5.71;87.78;92345.25;2067731;69;20625;-80
2023/11/13 03:29:13;;;;;;;2.63;1.27;;;;;;;5.93;86.93;92366.44;2068038;69;20149;-80
2023/11/13 03:31:39;;;;;;;3.13;1.45;;;;;;;5.78;88.86;92369.53;2065103;69;20155;-79
2023/11/13 03:34:05;;;;;;;2.00;0.90;;;;;;;5.70;88.37;92357.75;2071519;69;20177;-80
2023/11/13 03:36:31;;;;;;;1.30;1.20;;;;;;;5.67;88.78;92376.41;2071522;69;20166;-78
2023/11/13 03:38:56;;;;;;;2.78;1.40;;;;;;;5.82;88.33;92361.44;2071397;69;20213;-79
2023/11/13 03:41:22;;;;;;;1.60;1.23;;;;;;;5.76;87.94;92367.28;2071374;69;20518;-80
2023/11/13 03:43:49;;;;;;;3.05;1.45;;;;;;;5.77;87.94;92354.81;2068216;69;20144;-79
2023/11/13 03:46:14;;;;;;;2.58;1.60;;;;;;;5.79;87.27;92365.41;2071538;69;20290;-80
2023/11/13 03:48:40;;;;;;;2.70;1.50;;;;;;;5.96;86.52;92379.25;2067754;69;20673;-80
2023/11/13 03:51:06;;;;;;;2.13;1.13;;;;;;;5.97;85.73;92382.78;2071108;69;20136;-80
2023/11/13 03:53:34;;;;;;;1.33;1.10;;;;;;;5.95;85.75;92397.31;2071356;69;20148;-79
2023/11/13 03:56:00;;;;;;;1.48;0.95;;;;;;;5.86;86.50;92396.00;2071511;69;20495;-79
2023/11/13 03:58:26;;;;;;;3.65;1.10;;;;;;;5.87;86.16;92382.75;2067979;69;20235;-79
2023/11/13 04:00:52;;;;;;;4.25;1.50;;;;;;;5.83;86.46;92371.28;2067776;69;20530;-78
2023/11/13 04:03:18;;;;;;;5.20;1.50;;;;;;;5.62;88.52;92369.06;2071379;69;20144;-78
2023/11/13 04:05:43;;;;;;;3.65;1.50;;;;;;;5.68;88.76;92369.53;2071405;69;20137;-78
2023/11/13 04:08:09;;;;;;;2.97;1.20;;;;;;;5.82;86.63;92353.06;2071349;69;20171;-79
2023/11/13 04:10:35;;;;;;;2.78;1.45;;;;;;;5.69;86.92;92354.22;2065194;69;20513;-79
2023/11/13 04:13:01;;;;;;;5.03;1.10;;;;;;;5.71;86.99;92340.41;2068216;69;20688;-78
2023/11/13 04:15:27;;;;;;;1.33;0.90;;;;;;;5.64;87.96;92340.56;2071235;69;20255;-79
2023/11/13 04:17:52;;;;;;;5.18;1.02;;;;;;;5.69;87.64;92340.25;2071423;69;20667;-79
2023/11/13 04:20:21;;;;;;;3.67;1.70;;;;;;;4.92;91.55;92326.94;2071143;69;20143;-80
2023/11/13 04:22:48;;;;;;;2.97;1.65;;;;;;;5.20;90.54;92324.78;2071252;69;20171;-79
2023/11/13 04:25:14;;;;;;;2.72;1.98;;;;;;;5.21;89.94;92337.41;2071226;69;20206;-79
2023/11/13 04:27:41;;;;;;;4.53;2.50;;;;;;;5.33;89.08;92346.69;2071125;69;20135;-79
2023/11/13 04:30:08;;;;;;;7.47;3.20;;;;;;;5.50;88.19;92352.16;2071320;69;20620;-79
2023/11/13 04:32:34;;;;;;;7.40;3.72;;;;;;;5.27;88.51;92363.00;2071139;69;20992;-79
2023/11/13 04:35:00;;;;;;;3.70;3.20;;;;;;;4.73;90.41;92391.75;2071360;69;20235;-80
2023/11/13 04:37:26;;;;;;;4.65;3.30;;;;;;;5.07;90.10;92404.06;2071156;69;20186;-78
2023/11/13 04:39:52;;;;;;;6.07;3.78;;;;;;;5.23;88.77;92405.28;2067534;69;20705;-80
2023/11/13 04:42:18;;;;;;;5.82;3.95;;;;;;;4.72;89.34;92411.84;2071066;69;20174;-80
2023/11/13 04:44:44;;;;;;;6.10;4.15;;;;;;;5.08;89.39;92434.16;2070922;69;20148;-80
2023/11/13 04:47:10;;;;;;;5.72;4.65;;;;;;;5.08;88.33;92419.47;2071107;69;20145;-80
2023/11/13 04:49:36;;;;;;;6.95;4.30;;;;;;;5.27;88.30;92433.50;2071289;69;20645;-80
2023/11/13 04:52:02;;;;;;;40.63;22.60;;;;;;;4.74;88.93;92418.31;2071458;69;20221;-81
2023/11/13 04:54:27;;;;;;;19.50;13.45;;;;;;;4.79;90.51;92416.59;2071073;69;20153;-80
2023/11/13 04:56:56;;;;;;;21.75;15.48;;;;;;;5.00;90.46;92425.19;2071927;69;20132;-80
2023/11/13 04:59:22;;;;;;;20.98;13.25;;;;;;;4.95;89.04;92414.28;2068470;69;20148;-81
2023/11/13 05:01:48;;;;;;;17.38;10.48;;;;;;;4.98;89.94;92429.88;2072086;69;20189;-80
2023/11/13 05:04:13;;;;;;;17.02;11.82;;;;;;;5.16;89.26;92422.88;2071964;69;20189;-81
2023/11/13 05:06:39;;;;;;;14.80;10.85;;;;;;;5.24;88.21;92397.66;2071931;69;20152;-81
2023/11/13 05:09:05;;;;;;;15.32;10.25;;;;;;;5.17;87.98;92393.66;2071891;69;20596;-80
2023/11/13 05:11:31;;;;;;;10.48;7.30;;;;;;;5.09;88.63;92388.22;2068581;69;20152;-80
2023/11/13 05:13:56;;;;;;;9.77;6.20;;;;;;;4.90;90.50;92381.81;2071987;69;20152;-80
2023/11/13 05:16:24;;;;;;;7.82;5.80;;;;;;;5.15;89.33;92371.19;2068509;69;20159;-79
2023/11/13 05:18:53;;;;;;;4.30;2.97;;;;;;;5.22;88.97;92339.66;2072031;69;20137;-79
2023/11/13 05:21:20;;;;;;;4.15;3.13;;;;;;;5.21;90.18;92340.94;2068586;69;20155;-79
2023/11/13 05:23:47;;;;;;;1.45;1.25;;;;;;;5.45;90.01;92355.22;2068625;69;20237;-78
2023/11/13 05:26:16;;;;;;;1.30;0.90;;;;;;;5.58;89.58;92332.47;2071770;69;20603;-79
2023/11/13 05:28:43;;;;;;;2.13;1.10;;;;;;;5.72;90.03;92332.75;2071773;69;20144;-81
2023/11/13 05:31:09;;;;;;;1.33;1.05;;;;;;;5.80;89.76;92333.34;2071963;69;20622;-79
2023/11/13 05:33:34;;;;;;;1.30;1.00;;;;;;;5.80;89.59;92334.06;2071611;69;20243;-81
2023/11/13 05:36:00;;;;;;;1.60;0.90;;;;;;;5.80;91.07;92324.97;2071662;69;20142;-81
2023/11/13 05:38:26;;;;;;;1.38;0.90;;;;;;;5.79;90.93;92354.97;2071802;69;20202;-81
2023/11/13 05:40:52;;;;;;;1.55;1.00;;;;;;;5.79;91.78;92346.56;2068469;69;20132;-79
2023/11/13 05:43:17;;;;;;;4.78;1.08;;;;;;;5.91;89.99;92341.13;2071868;69;20133;-79
2023/11/13 05:45:44;;;;;;;1.90;0.70;;;;;;;5.99;90.87;92360.56;2071844;69;20234;-80
2023/11/13 05:48:10;;;;;;;3.97;1.88;;;;;;;5.91;89.38;92366.28;2071874;69;20589;-80
2023/11/13 05:50:35;;;;;;;3.17;1.63;;;;;;;6.02;88.36;92371.28;2071784;69;20164;-80
2023/11/13 05:53:01;;;;;;;2.40;1.90;;;;;;;5.93;88.31;92374.09;2071892;69;20167;-80
2023/11/13 05:55:27;;;;;;;2.95;1.35;;;;;;;6.15;88.49;92394.53;2071678;69;20148;-80
2023/11/13 05:57:53;;;;;;;2.83;1.50;;;;;;;6.09;88.72;92401.16;2071828;69;20213;-80
2023/11/13 06:00:20;;;;;;;1.88;1.30;;;;;;;6.17;89.89;92403.06;2071740;69;20561;-81
2023/11/13 06:02:46;;;;;;;2.67;0.88;;;;;;;6.26;88.95;92403.03;2071781;69;20163;-78
2023/11/13 06:05:12;;;;;;;0.90;0.80;;;;;;;6.30;87.97;92389.34;2071975;69;20144;-80
2023/11/13 06:07:38;;;;;;;1.58;0.70;;;;;;;6.29;89.56;92395.53;2068592;69;20155;-80
2023/11/13 06:10:07;;;;;;;1.35;0.90;;;;;;;6.34;89.24;92403.63;2071733;69;20179;-81
2023/11/13 06:12:33;;;;;;;2.10;1.02;;;;;;;6.36;89.28;92405.81;2071810;69;20156;-80
2023/11/13 06:14:59;;;;;;;0.90;0.70;;;;;;;6.43;88.19;92404.19;2071718;69;20144;-80
2023/11/13 06:17:25;;;;;;;0.90;0.75;;;;;;;6.44;89.19;92406.41;2071897;69;20140;-80
2023/11/13 06:19:53;;;;;;;2.83;1.00;;;;;;;6.47;89.84;92410.81;2068658;69;20158;-80
2023/11/13 06:22:22;;;;;;;1.58;0.85;;;;;;;6.53;89.38;92430.81;2068770;69;20147;-81
2023/11/13 06:24:47;;;;;;;2.63;1.17;;;;;;;6.48;89.31;92428.31;2071918;69;20147;-81
2023/11/13 06:27:14;;;;;;;1.92;0.80;;;;;;;6.51;90.36;92438.34;2071765;69;20730;-81
2023/11/13 06:29:39;;;;;;;0.90;0.80;;;;;;;6.61;89.77;92447.44;2071810;69;20442;-80
2023/11/13 06:32:07;;;;;;;3.25;0.82;;;;;;;6.69;88.66;92464.81;2071777;69;20654;-79
2023/11/13 06:34:33;;;;;;;5.75;4.38;;;;;;;6.75;87.86;92464.50;2071685;69;20152;-80
2023/11/13 06:36:59;;;;;;;1.98;1.70;;;;;;;6.68;89.38;92445.81;2071257;69;20171;-79
2023/11/13 06:39:25;;;;;;;8.20;5.00;;;;;;;6.41;89.98;92451.56;2071646;69;20145;-80
2023/11/13 06:41:50;;;;;;;8.45;4.32;;;;;;;6.60;89.34;92457.16;2071597;69;20131;-80
2023/11/13 06:44:16;;;;;;;6.38;3.90;;;;;;;6.70;88.51;92454.34;2068470;69;20156;-80
2023/11/13 06:46:42;;;;;;;6.93;3.63;;;;;;;6.73;87.28;92464.34;2071805;69;20179;-80
2023/11/13 06:49:07;;;;;;;6.20;2.50;;;;;;;6.70;89.14;92463.47;2071779;69;20151;-80
2023/11/13 06:51:33;;;;;;;2.20;1.40;;;;;;;6.74;88.07;92449.78;2071783;69;20209;-80
2023/11/13 06:54:00;;;;;;;2.20;1.30;;;;;;;6.75;88.84;92454.03;2071690;69;20128;-80
2023/11/13 06:56:26;;;;;;;1.85;1.20;;;;;;;6.70;89.79;92455.09;2071639;69;20183;-80
2023/11/13 06:58:52;;;;;;;4.50;1.25;;;;;;;6.86;89.87;92466.66;2071853;69;20152;-80
2023/11/13 07:01:20;;;;;;;2.33;1.20;;;;;;;6.87;89.35;92471.69;2071745;69;20156;-80
2023/11/13 07:03:45;;;;;;;2.55;1.13;;;;;;;6.90;88.38;92474.63;2071889;69;20252;-80
2023/11/13 07:06:11;;;;;;;1.45;1.30;;;;;;;6.90;89.11;92480.94;2071804;69;20171;-79
2023/11/13 07:08:38;;;;;;;3.30;1.70;;;;;;;6.79;88.75;92487.91;2071684;69;20523;-79
2023/11/13 07:11:08;;;;;;;3.83;1.50;;;;;;;6.91;89.18;92495.66;2071644;69;20183;-80
2023/11/13 07:13:34;;;;;;;4.10;1.80;;;;;;;6.90;88.60;92491.41;2068381;69;20152;-80
2023/11/13 07:16:03;;;;;;;3.28;1.60;;;;;;;6.94;88.22;92500.81;2071483;69;20171;-79
2023/11/13 07:18:28;;;;;;;3.75;1.70;;;;;;;7.00;88.88;92490.06;2068372;69;20140;-80
2023/11/13 07:20:54;;;;;;;2.35;1.40;;;;;;;6.98;88.25;92483.59;2071651;69;20492;-79
2023/11/13 07:23:20;;;;;;;2.53;1.65;;;;;;;7.09;87.93;92496.97;2071597;69;20128;-80
2023/11/13 07:25:46;;;;;;;3.58;1.50;;;;;;;7.13;87.24;92495.19;2071514;69;20199;-79
2023/11/13 07:28:12;;;;;;;6.57;1.98;;;;;;;7.08;88.35;92499.03;2071586;69;20156;-79
2023/11/13 07:30:37;;;;;;;5.05;1.60;;;;;;;7.17;87.21;92499.59;2071588;69;20679;-79
2023/11/13 07:33:03;;;;;;;3.20;1.40;;;;;;;7.18;88.21;92503.88;2071829;69;20128;-79
2023/11/13 07:35:30;;;;;;;8.45;2.33;;;;;;;7.23;87.98;92516.81;2071782;69;20247;-80
2023/11/13 07:37:56;;;;;;;9.38;2.08;;;;;;;7.27;87.89;92511.50;2071621;69;20156;-79
2023/11/13 07:40:22;;;;;;;4.95;1.77;;;;;;;7.23;87.43;92503.53;2071548;69;20162;-79
2023/11/13 07:42:48;;;;;;;6.20;2.30;;;;;;;7.19;88.84;92503.25;2071631;69;20147;-79
2023/11/13 07:45:14;;;;;;;6.07;1.85;;;;;;;7.30;87.51;92502.66;2071539;69;20151;-79
2023/11/13 07:47:41;;;;;;;3.55;1.90;;;;;;;7.18;88.72;92496.19;2071562;69;20243;-81
2023/11/13 07:50:11;;;;;;;5.65;1.67;;;;;;;7.29;88.59;92495.59;2071619;69;20213;-80
2023/11/13 07:52:42;;;;;;;7.10;2.20;;;;;;;7.35;88.09;92521.19;2068305;69;20140;-80
2023/11/13 07:55:12;;;;;;;11.63;2.10;;;;;;;7.41;87.79;92514.53;2071606;69;20182;-81
2023/11/13 07:57:38;;;;;;;12.73;2.95;;;;;;;7.17;89.26;92497.53;2071811;69;20166;-81
2023/11/13 08:00:09;;;;;;;5.80;2.78;;;;;;;7.17;88.89;92500.31;2071635;69;20140;-82
2023/11/13 08:02:42;;;;;;;10.75;2.35;;;;;;;7.24;88.70;92516.22;2068449;69;20152;-79
2023/11/13 08:05:12;;;;;;;4.90;2.58;;;;;;;7.25;88.60;92494.56;2071653;69;20148;-81
2023/11/13 08:07:40;;;;;;;5.55;2.47;;;;;;;7.27;88.36;92500.28;2071607;69;20152;-81
2023/11/13 08:10:12;;;;;;;7.05;2.25;;;;;;;7.50;87.28;92511.69;2068294;69;20233;-80
2023/11/13 08:12:49;;;;;;;3.63;1.83;;;;;;;7.51;87.18;92520.84;2071636;69;20148;-81
2023/11/13 08:15:16;;;;;;;3.03;1.83;;;;;;;7.55;87.99;92529.53;2071466;69;20162;-80
2023/11/13 08:17:43;;;;;;;4.45;2.03;;;;;;;7.56;87.96;92536.59;2071679;69;20160;-80
2023/11/13 08:20:16;;;;;;;2.70;2.10;;;;;;;7.62;86.88;92537.03;2071497;69;20140;-80
2023/11/13 08:22:45;;;;;;;7.97;5.25;;;;;;;7.48;87.32;92522.03;2071673;69;20652;-81
2023/11/13 08:25:17;;;;;;;3.60;1.92;;;;;;;7.56;86.80;92531.00;2071412;69;20147;-81
2023/11/13 08:27:44;;;;;;;3.33;1.77;;;;;;;7.69;86.21;92532.56;2071977;69;20152;-81
2023/11/13 08:30:14;;;;;;;2.50;1.60;;;;;;;7.72;87.15;92526.50;2072066;69;20167;-81
2023/11/13 08:32:41;;;;;;;4.15;1.60;;;;;;;7.62;87.16;92539.81;2072317;69;20140;-80
2023/11/13 08:35:13;;;;;;;14.73;7.68;;;;;;;7.38;90.42;92559.22;2072393;69;20187;-81
2023/11/13 08:37:43;;;;;;;12.35;6.38;;;;;;;7.45;90.23;92534.44;2069381;69;20128;-81
2023/11/13 08:40:17;;;;;;;8.55;3.83;;;;;;;7.53;89.49;92557.41;2072336;69;20492;-80
2023/11/13 08:42:43;;;;;;;12.90;6.40;;;;;;;7.37;90.50;92582.19;2072546;69;20155;-80
2023/11/13 08:45:15;;;;;;;9.90;7.03;;;;;;;7.22;91.90;92566.47;2072181;69;20157;-82
2023/11/13 08:47:42;;;;;;;13.02;7.88;;;;;;;7.57;89.55;92557.69;2072091;69;20531;-80
2023/11/13 08:50:11;;;;;;;9.13;5.07;;;;;;;7.56;89.45;92582.16;2072017;69;20145;-84
2023/11/13 08:52:43;;;;;;;8.93;5.63;;;;;;;7.38;90.20;92552.88;2072046;69;20163;-82
2023/11/13 08:55:10;;;;;;;16.80;10.18;;;;;;;7.12;92.80;92541.31;2071848;69;20148;-82
2023/11/13 08:57:46;;;;;;;15.55;7.63;;;;;;;7.43;92.06;92545.50;2071959;69;20168;-80
2023/11/13 09:00:24;;;;;;;15.45;9.00;;;;;;;7.72;90.32;92543.31;2072046;69;20144;-80
2023/11/13 09:02:56;;;;;;;20.42;11.57;;;;;;;7.65;90.31;92549.81;2071986;69;20527;-80
2023/11/13 09:05:26;;;;;;;18.13;9.65;;;;;;;7.87;89.42;92540.16;2071905;69;20669;-80
2023/11/13 09:07:56;;;;;;;11.23;5.28;;;;;;;7.99;88.56;92554.25;2071946;69;20159;-79
2023/11/13 09:10:26;;;;;;;4.03;2.28;;;;;;;8.00;88.63;92569.75;2071903;69;20167;-80
2023/11/13 09:12:58;;;;;;;5.38;2.50;;;;;;;7.98;88.18;92563.28;2071884;69;20207;-80
2023/11/13 09:15:30;;;;;;;4.53;2.70;;;;;;;7.90;89.67;92546.63;2068479;69;20249;-80
2023/11/13 09:18:01;;;;;;;4.55;2.30;;;;;;;7.90;88.81;92557.84;2068690;69;20206;-79
2023/11/13 09:20:27;;;;;;;5.55;2.97;;;;;;;8.02;87.85;92580.38;2071948;69;20160;-79
2023/11/13 09:22:56;;;;;;;8.63;5.03;;;;;;;7.80;89.66;92563.50;2071952;69;20217;-80
2023/11/13 09:25:22;;;;;;;7.00;4.38;;;;;;;8.02;88.67;92577.56;2071940;69;20156;-82
2023/11/13 09:27:51;;;;;;;7.97;4.18;;;;;;;8.12;88.36;92578.25;2071956;69;20171;-80
2023/11/13 09:30:19;;;;;;;6.45;2.78;;;;;;;8.25;88.11;92562.97;2065810;69;20244;-82
2023/11/13 09:32:46;;;;;;;8.40;4.10;;;;;;;7.99;89.16;92576.69;2071939;69;20209;-81
2023/11/13 09:35:33;;;;;;;8.70;5.30;;;;;;;8.18;87.94;92583.53;2077400;69;20151;-81
2023/11/13 09:38:01;;;;;;;9.57;4.00;;;;;;;8.39;87.10;92575.19;2072001;69;20168;-79
2023/11/13 09:40:29;;;;;;;8.65;4.55;;;;;;;8.41;88.17;92589.31;2071836;69;20151;-79
2023/11/13 09:43:06;;;;;;;6.07;3.40;;;;;;;8.58;88.07;92596.75;2071893;69;20545;-80
2023/11/13 09:45:32;;;;;;;3.72;2.67;;;;;;;8.70;87.84;92596.81;2071885;69;20199;-80
2023/11/13 09:48:04;;;;;;;4.47;2.60;;;;;;;8.78;86.20;92595.28;2071889;69;20142;-81
2023/11/13 09:50:30;;;;;;;6.97;3.60;;;;;;;8.83;86.83;92585.78;2072103;69;20156;-80
2023/11/13 09:52:57;;;;;;;8.70;4.35;;;;;;;8.91;86.13;92596.81;2071777;69;20137;-80
2023/11/13 09:55:26;;;;;;;4.25;2.83;;;;;;;9.00;86.27;92601.59;2071706;69;20132;-80
2023/11/13 09:57:53;;;;;;;4.47;3.05;;;;;;;9.06;86.05;92590.03;2071754;69;20352;-82
2023/11/13 10:00:23;;;;;;;4.80;2.05;;;;;;;8.94;85.74;92609.66;2071825;69;20240;-82
2023/11/13 10:02:51;;;;;;;25.30;12.65;;;;;;;8.85;88.71;92611.19;2071780;69;20140;-82
2023/11/13 10:05:18;;;;;;;18.40;10.40;;;;;;;9.05;87.42;92611.75;2071889;69;20152;-86
2023/11/13 10:07:47;;;;;;;15.77;10.90;;;;;;;9.06;87.34;92610.41;2071934;69;20152;-81
2023/11/13 10:10:19;;;;;;;15.60;10.38;;;;;;;9.29;86.79;92600.63;2071615;69;20232;-81
2023/11/13 10:12:45;;;;;;;19.27;11.82;;;;;;;9.36;86.08;92600.41;2071982;69;20226;-81
2023/11/13 10:15:14;;;;;;;5.85;3.95;;;;;;;9.55;86.43;92596.66;2071835;69;20215;-82
2023/11/13 10:17:42;;;;;;;3.50;2.13;;;;;;;9.61;85.99;92588.59;2071829;69;20181;-81
2023/11/13 10:20:09;;;;;;;4.22;3.20;;;;;;;9.80;84.95;92567.25;2071794;69;20136;-82
2023/11/13 10:22:35;;;;;;;3.22;2.05;;;;;;;10.36;84.18;92563.63;2071862;69;20153;-84
2023/11/13 10:25:00;;;;;;;5.28;2.97;;;;;;;10.82;83.79;92554.34;2068459;69;20220;-84
2023/11/13 10:27:26;;;;;;;6.10;4.13;;;;;;;10.93;81.50;92547.19;2071893;69;20190;-82
2023/11/13 10:30:03;;;;;;;6.20;3.90;;;;;;;11.29;80.66;92544.97;2071927;69;20212;-80
2023/11/13 10:32:32;;;;;;;5.15;3.05;;;;;;;11.28;79.19;92540.69;2068414;69;20144;-81
2023/11/13 10:34:58;;;;;;;2.97;1.80;;;;;;;11.15;76.98;92540.00;2071940;69;20149;-84
2023/11/13 10:37:24;;;;;;;4.18;2.50;;;;;;;11.48;79.40;92543.88;2068588;69;20145;-83
2023/11/13 10:39:51;;;;;;;4.22;3.60;;;;;;;11.54;76.67;92518.84;2065714;69;20160;-85
2023/11/13 10:42:28;;;;;;;5.15;2.75;;;;;;;12.15;77.65;92542.59;2071946;69;20206;-85
2023/11/13 10:44:58;;;;;;;10.10;6.15;;;;;;;12.29;76.91;92551.06;2068967;69;20172;-90
2023/11/13 10:47:30;;;;;;;4.50;2.70;;;;;;;12.16;75.34;92548.97;2072127;69;20552;-85
2023/11/13 10:49:57;;;;;;;4.30;2.40;;;;;;;11.83;75.56;92549.34;2071700;69;20179;-84
2023/11/13 10:52:26;;;;;;;3.85;2.60;;;;;;;11.87;76.71;92530.56;2071958;69;20171;-82
2023/11/13 10:55:01;;;;;;;4.72;3.10;;;;;;;11.83;75.90;92535.97;2071596;69;20137;-81
2023/11/13 10:57:27;;;;;;;4.53;2.97;;;;;;;12.46;75.85;92541.34;2071758;69;20255;-81
2023/11/13 10:59:55;;;;;;;5.65;3.40;;;;;;;12.65;75.84;92504.22;2071718;69;20210;-80
2023/11/13 11:02:45;;;;;;;4.03;2.30;;;;;;;12.62;74.51;92511.09;2071752;69;20223;-82
2023/11/13 11:05:28;;;;;;;4.43;2.10;;;;;;;12.58;74.37;92496.06;2069678;69;20192;-81
2023/11/13 11:07:55;;;;;;;3.17;1.95;;;;;;;12.57;74.53;92509.44;2071784;69;20125;-82
2023/11/13 11:10:25;;;;;;;3.35;2.05;;;;;;;12.62;76.04;92502.63;2071617;69;20615;-81
2023/11/13 11:13:03;;;;;;;6.03;2.22;;;;;;;13.10;76.64;92483.03;2071821;69;20226;-81
2023/11/13 11:15:34;;;;;;;4.55;2.22;;;;;;;14.79;68.79;92495.59;2071700;69;20228;-80
2023/11/13 11:18:23;;;;;;;3.88;2.58;;;;;;;15.13;67.69;92476.47;2071658;69;20152;-80
2023/11/13 11:21:05;;;;;;;3.25;2.30;;;;;;;15.93;65.08;92495.19;2068291;69;20232;-81
2023/11/13 11:23:39;;;;;;;7.15;2.55;;;;;;;16.73;63.55;92484.63;2072110;69;20584;-83
2023/11/13 11:26:06;;;;;;;4.85;2.30;;;;;;;15.44;66.58;92481.22;2071816;69;20664;-84
2023/11/13 11:28:48;;;;;;;6.32;1.95;;;;;;;14.60;68.32;92485.59;2071854;69;20168;-79
2023/11/13 11:31:38;;;;;;;3.38;1.88;;;;;;;14.36;69.56;92485.25;2071767;69;20588;-83
2023/11/13 11:34:07;;;;;;;2.97;2.20;;;;;;;13.56;68.65;92461.94;2071750;69;20294;-83
2023/11/13 11:36:37;;;;;;;5.38;3.28;;;;;;;12.91;72.87;92453.19;2071816;69;20147;-82
2023/11/13 11:39:21;;;;;;;5.15;3.38;;;;;;;13.37;73.23;92434.91;2071783;69;20251;-84
2023/11/13 11:41:51;;;;;;;6.13;4.00;;;;;;;13.14;72.68;92438.75;2071527;69;20613;-79